sensor_id;sensor_type;location;lat;lon;timestamp;pressure;altitude;pressure_sealevel;temperature;humidity
54144;BME280;40050;47.324;18.792;2023-03-20T00:00:43;1003.81;;;12.41;46.44
54144;BME280;40050;47.324;18.792;2023-03-20T00:02:44;1003.84;;;12.40;46.65
54144;BME280;40050;47.324;18.792;2023-03-20T00:04:45;1003.82;;;12.33;46.81
54144;BME280;40050;47.324;18.792;2023-03-20T00:06:46;1003.88;;;12.33;46.94
54144;BME280;40050;47.324;18.792;2023-03-20T00:08:48;1003.83;;;12.34;46.61
54144;BME280;40050;47.324;18.792;2023-03-20T00:10:49;1003.86;;;12.36;46.48
54144;BME280;40050;47.324;18.792;2023-03-20T00:12:50;1003.85;;;12.33;46.81
54144;BME280;40050;47.324;18.792;2023-03-20T00:14:51;1003.84;;;12.27;47.02
54144;BME280;40050;47.324;18.792;2023-03-20T00:16:55;1003.81;;;12.22;47.23
54144;BME280;40050;47.324;18.792;2023-03-20T00:18:56;1003.84;;;12.21;47.19
54144;BME280;40050;47.324;18.792;2023-03-20T00:20:57;1003.82;;;12.21;47.19
54144;BME280;40050;47.324;18.792;2023-03-20T00:22:57;1003.77;;;12.18;47.28
54144;BME280;40050;47.324;18.792;2023-03-20T00:24:58;1003.76;;;12.20;47.38
54144;BME280;40050;47.324;18.792;2023-03-20T00:26:59;1003.76;;;12.19;47.23
54144;BME280;40050;47.324;18.792;2023-03-20T00:29:00;1003.78;;;12.18;47.32
54144;BME280;40050;47.324;18.792;2023-03-20T00:31:02;1003.76;;;12.15;47.12
54144;BME280;40050;47.324;18.792;2023-03-20T00:45:39;1003.86;;;11.80;47.25
54144;BME280;40050;47.324;18.792;2023-03-20T00:47:40;1003.86;;;11.80;46.82
54144;BME280;40050;47.324;18.792;2023-03-20T00:49:41;1003.80;;;11.83;46.92
54144;BME280;40050;47.324;18.792;2023-03-20T00:51:42;1003.81;;;11.86;46.72
54144;BME280;40050;47.324;18.792;2023-03-20T00:53:43;1003.84;;;11.93;46.90
54144;BME280;40050;47.324;18.792;2023-03-20T00:55:44;1003.81;;;11.93;46.95
54144;BME280;40050;47.324;18.792;2023-03-20T00:57:47;1003.76;;;11.96;47.69
54144;BME280;40050;47.324;18.792;2023-03-20T01:00:07;1003.75;;;11.93;47.52
54144;BME280;40050;47.324;18.792;2023-03-20T01:02:05;1003.78;;;11.89;47.58
54144;BME280;40050;47.324;18.792;2023-03-20T01:04:12;1003.80;;;11.87;47.73
54144;BME280;40050;47.324;18.792;2023-03-20T01:06:13;1003.78;;;11.86;47.38
54144;BME280;40050;47.324;18.792;2023-03-20T01:08:19;1003.72;;;11.86;47.57
54144;BME280;40050;47.324;18.792;2023-03-20T01:10:21;1003.68;;;11.86;47.64
54144;BME280;40050;47.324;18.792;2023-03-20T01:12:24;1003.71;;;11.84;47.98
54144;BME280;40050;47.324;18.792;2023-03-20T01:14:25;1003.68;;;11.84;47.75
54144;BME280;40050;47.324;18.792;2023-03-20T01:16:26;1003.76;;;11.88;47.67
54144;BME280;40050;47.324;18.792;2023-03-20T01:18:28;1003.74;;;11.90;47.78
54144;BME280;40050;47.324;18.792;2023-03-20T01:20:29;1003.73;;;11.87;47.63
54144;BME280;40050;47.324;18.792;2023-03-20T01:22:30;1003.74;;;11.88;47.61
54144;BME280;40050;47.324;18.792;2023-03-20T01:24:31;1003.68;;;11.88;47.50
54144;BME280;40050;47.324;18.792;2023-03-20T01:26:36;1003.62;;;11.87;47.50
54144;BME280;40050;47.324;18.792;2023-03-20T01:28:37;1003.63;;;11.88;47.77
54144;BME280;40050;47.324;18.792;2023-03-20T01:30:38;1003.57;;;11.94;48.22
54144;BME280;40050;47.324;18.792;2023-03-20T01:32:39;1003.57;;;11.97;48.08
54144;BME280;40050;47.324;18.792;2023-03-20T01:34:40;1003.54;;;12.01;47.51
54144;BME280;40050;47.324;18.792;2023-03-20T01:36:43;1003.53;;;12.01;47.29
54144;BME280;40050;47.324;18.792;2023-03-20T01:38:45;1003.56;;;12.03;47.45
54144;BME280;40050;47.324;18.792;2023-03-20T01:40:54;1003.54;;;12.02;47.45
54144;BME280;40050;47.324;18.792;2023-03-20T01:43:34;1003.56;;;11.96;47.53
54144;BME280;40050;47.324;18.792;2023-03-20T01:45:35;1003.58;;;11.96;47.61
54144;BME280;40050;47.324;18.792;2023-03-20T01:47:37;1003.59;;;11.94;48.12
54144;BME280;40050;47.324;18.792;2023-03-20T01:55:58;1003.51;;;11.83;47.30
54144;BME280;40050;47.324;18.792;2023-03-20T01:58:01;1003.50;;;11.78;47.41
54144;BME280;40050;47.324;18.792;2023-03-20T02:00:04;1003.48;;;11.79;47.76
54144;BME280;40050;47.324;18.792;2023-03-20T02:02:06;1003.44;;;11.76;47.90
54144;BME280;40050;47.324;18.792;2023-03-20T02:04:09;1003.48;;;11.79;48.00
54144;BME280;40050;47.324;18.792;2023-03-20T02:06:11;1003.41;;;11.72;47.83
54144;BME280;40050;47.324;18.792;2023-03-20T02:08:16;1003.38;;;11.67;47.66
54144;BME280;40050;47.324;18.792;2023-03-20T02:10:18;1003.49;;;11.69;47.76
54144;BME280;40050;47.324;18.792;2023-03-20T02:12:20;1003.47;;;11.66;47.98
54144;BME280;40050;47.324;18.792;2023-03-20T02:14:21;1003.47;;;11.66;47.80
54144;BME280;40050;47.324;18.792;2023-03-20T02:16:23;1003.22;;;11.52;47.56
54144;BME280;40050;47.324;18.792;2023-03-20T02:18:24;1003.36;;;11.62;47.68
54144;BME280;40050;47.324;18.792;2023-03-20T02:23:05;1003.46;;;11.72;47.66
54144;BME280;40050;47.324;18.792;2023-03-20T02:34:46;1003.39;;;11.61;48.40
54144;BME280;40050;47.324;18.792;2023-03-20T02:39:24;1003.38;;;11.61;48.22
54144;BME280;40050;47.324;18.792;2023-03-20T02:41:31;1003.39;;;11.66;48.52
54144;BME280;40050;47.324;18.792;2023-03-20T02:50:31;1003.42;;;11.51;48.68
54144;BME280;40050;47.324;18.792;2023-03-20T02:52:43;1003.45;;;11.50;48.57
54144;BME280;40050;47.324;18.792;2023-03-20T03:13:53;1003.66;;;10.65;50.11
54144;BME280;40050;47.324;18.792;2023-03-20T03:15:57;1003.68;;;10.58;50.47
54144;BME280;40050;47.324;18.792;2023-03-20T03:30:36;1003.62;;;10.28;50.97
54144;BME280;40050;47.324;18.792;2023-03-20T03:32:42;1003.64;;;10.28;51.16
54144;BME280;40050;47.324;18.792;2023-03-20T03:34:44;1003.66;;;10.33;51.14
54144;BME280;40050;47.324;18.792;2023-03-20T03:39:13;1003.62;;;10.24;51.05
54144;BME280;40050;47.324;18.792;2023-03-20T03:41:24;1003.65;;;10.21;51.05
54144;BME280;40050;47.324;18.792;2023-03-20T03:43:34;1003.56;;;10.15;51.29
54144;BME280;40050;47.324;18.792;2023-03-20T03:45:39;1003.58;;;10.09;51.45
54144;BME280;40050;47.324;18.792;2023-03-20T03:47:51;1003.56;;;10.09;51.74
54144;BME280;40050;47.324;18.792;2023-03-20T03:49:56;1003.52;;;10.05;51.82
54144;BME280;40050;47.324;18.792;2023-03-20T03:51:59;1003.60;;;10.01;51.64
54144;BME280;40050;47.324;18.792;2023-03-20T03:54:06;1003.62;;;9.97;51.69
54144;BME280;40050;47.324;18.792;2023-03-20T03:56:09;1003.62;;;9.92;51.57
54144;BME280;40050;47.324;18.792;2023-03-20T03:58:28;1003.57;;;9.82;51.66
54144;BME280;40050;47.324;18.792;2023-03-20T04:00:30;1003.60;;;9.73;51.83
54144;BME280;40050;47.324;18.792;2023-03-20T04:02:32;1003.69;;;9.71;52.04
54144;BME280;40050;47.324;18.792;2023-03-20T04:04:34;1003.69;;;9.66;52.11
54144;BME280;40050;47.324;18.792;2023-03-20T04:06:36;1003.76;;;9.65;52.17
54144;BME280;40050;47.324;18.792;2023-03-20T04:08:40;1003.73;;;9.62;52.22
54144;BME280;40050;47.324;18.792;2023-03-20T04:10:50;1003.77;;;9.57;52.11
54144;BME280;40050;47.324;18.792;2023-03-20T04:12:54;1003.75;;;9.49;52.24
54144;BME280;40050;47.324;18.792;2023-03-20T04:14:55;1003.79;;;9.48;52.51
54144;BME280;40050;47.324;18.792;2023-03-20T04:16:55;1003.81;;;9.46;52.73
54144;BME280;40050;47.324;18.792;2023-03-20T04:18:56;1003.78;;;9.43;52.58
54144;BME280;40050;47.324;18.792;2023-03-20T04:20:57;1003.84;;;9.44;52.79
54144;BME280;40050;47.324;18.792;2023-03-20T04:22:58;1003.85;;;9.43;52.70
54144;BME280;40050;47.324;18.792;2023-03-20T04:25:03;1003.87;;;9.40;52.77
54144;BME280;40050;47.324;18.792;2023-03-20T04:27:04;1003.90;;;9.36;52.86
54144;BME280;40050;47.324;18.792;2023-03-20T04:29:05;1003.87;;;9.36;52.83
54144;BME280;40050;47.324;18.792;2023-03-20T04:31:06;1003.88;;;9.34;52.91
54144;BME280;40050;47.324;18.792;2023-03-20T04:33:07;1003.84;;;9.30;52.93
54144;BME280;40050;47.324;18.792;2023-03-20T04:39:26;1003.69;;;9.21;52.93
54144;BME280;40050;47.324;18.792;2023-03-20T04:41:27;1003.66;;;9.22;53.13
54144;BME280;40050;47.324;18.792;2023-03-20T04:43:28;1003.72;;;9.21;53.33
54144;BME280;40050;47.324;18.792;2023-03-20T04:45:29;1003.76;;;9.22;53.26
54144;BME280;40050;47.324;18.792;2023-03-20T04:47:31;1003.76;;;9.19;53.24
54144;BME280;40050;47.324;18.792;2023-03-20T04:49:31;1003.80;;;9.17;53.26
54144;BME280;40050;47.324;18.792;2023-03-20T04:51:32;1003.78;;;9.09;53.26
54144;BME280;40050;47.324;18.792;2023-03-20T04:53:33;1003.79;;;9.06;53.24
54144;BME280;40050;47.324;18.792;2023-03-20T04:55:34;1003.81;;;9.04;53.51
54144;BME280;40050;47.324;18.792;2023-03-20T04:57:35;1003.81;;;9.01;53.46
54144;BME280;40050;47.324;18.792;2023-03-20T04:59:36;1003.89;;;9.00;53.58
54144;BME280;40050;47.324;18.792;2023-03-20T05:01:37;1003.83;;;8.95;53.52
54144;BME280;40050;47.324;18.792;2023-03-20T05:03:38;1003.90;;;8.96;53.29
54144;BME280;40050;47.324;18.792;2023-03-20T05:05:39;1003.90;;;8.95;53.20
54144;BME280;40050;47.324;18.792;2023-03-20T05:07:40;1003.80;;;8.85;53.61
54144;BME280;40050;47.324;18.792;2023-03-20T05:09:41;1003.96;;;8.93;53.73
54144;BME280;40050;47.324;18.792;2023-03-20T05:11:42;1004.02;;;8.90;53.99
54144;BME280;40050;47.324;18.792;2023-03-20T05:13:43;1004.01;;;8.86;53.86
54144;BME280;40050;47.324;18.792;2023-03-20T05:15:44;1004.02;;;8.82;53.40
54144;BME280;40050;47.324;18.792;2023-03-20T05:17:45;1004.08;;;8.79;53.02
54144;BME280;40050;47.324;18.792;2023-03-20T05:19:45;1004.12;;;8.75;52.70
54144;BME280;40050;47.324;18.792;2023-03-20T05:21:46;1004.13;;;8.66;52.71
54144;BME280;40050;47.324;18.792;2023-03-20T05:23:47;1004.14;;;8.54;52.90
54144;BME280;40050;47.324;18.792;2023-03-20T05:25:48;1004.15;;;8.47;53.29
54144;BME280;40050;47.324;18.792;2023-03-20T05:27:49;1004.16;;;8.44;53.46
54144;BME280;40050;47.324;18.792;2023-03-20T05:29:50;1003.90;;;8.23;53.66
54144;BME280;40050;47.324;18.792;2023-03-20T05:31:51;1004.16;;;8.38;53.91
54144;BME280;40050;47.324;18.792;2023-03-20T05:33:52;1004.18;;;8.38;54.10
54144;BME280;40050;47.324;18.792;2023-03-20T05:35:53;1004.20;;;8.38;54.73
54144;BME280;40050;47.324;18.792;2023-03-20T05:37:54;1004.21;;;8.38;54.86
54144;BME280;40050;47.324;18.792;2023-03-20T05:39:55;1004.24;;;8.39;55.01
54144;BME280;40050;47.324;18.792;2023-03-20T05:41:56;1004.26;;;8.39;55.17
54144;BME280;40050;47.324;18.792;2023-03-20T05:43:56;1004.20;;;8.38;55.18
54144;BME280;40050;47.324;18.792;2023-03-20T05:46:00;1004.31;;;8.40;55.35
54144;BME280;40050;47.324;18.792;2023-03-20T05:48:01;1004.29;;;8.41;55.49
54144;BME280;40050;47.324;18.792;2023-03-20T05:50:02;1004.27;;;8.41;55.85
54144;BME280;40050;47.324;18.792;2023-03-20T05:52:03;1004.28;;;8.43;55.73
54144;BME280;40050;47.324;18.792;2023-03-20T05:54:04;1004.33;;;8.45;55.68
54144;BME280;40050;47.324;18.792;2023-03-20T05:56:05;1004.34;;;8.52;56.08
54144;BME280;40050;47.324;18.792;2023-03-20T05:58:08;1004.36;;;8.52;55.95
54144;BME280;40050;47.324;18.792;2023-03-20T06:00:09;1004.41;;;8.53;55.91
54144;BME280;40050;47.324;18.792;2023-03-20T06:02:10;1004.40;;;8.57;56.01
54144;BME280;40050;47.324;18.792;2023-03-20T06:04:11;1004.46;;;8.64;56.42
54144;BME280;40050;47.324;18.792;2023-03-20T06:06:12;1004.51;;;8.67;56.33
54144;BME280;40050;47.324;18.792;2023-03-20T06:08:13;1004.46;;;8.67;56.34
54144;BME280;40050;47.324;18.792;2023-03-20T06:10:15;1004.50;;;8.74;56.34
54144;BME280;40050;47.324;18.792;2023-03-20T06:12:16;1004.49;;;8.80;56.28
54144;BME280;40050;47.324;18.792;2023-03-20T06:14:17;1004.27;;;8.73;56.22
54144;BME280;40050;47.324;18.792;2023-03-20T06:16:18;1004.40;;;8.89;56.41
54144;BME280;40050;47.324;18.792;2023-03-20T06:18:28;1004.42;;;8.99;56.62
54144;BME280;40050;47.324;18.792;2023-03-20T06:20:29;1004.31;;;8.96;56.91
54144;BME280;40050;47.324;18.792;2023-03-20T06:22:30;1004.50;;;9.15;57.05
54144;BME280;40050;47.324;18.792;2023-03-20T06:24:31;1004.49;;;9.23;57.73
54144;BME280;40050;47.324;18.792;2023-03-20T06:26:32;1004.56;;;9.34;57.76
54144;BME280;40050;47.324;18.792;2023-03-20T06:28:32;1004.54;;;9.43;57.42
54144;BME280;40050;47.324;18.792;2023-03-20T06:30:33;1004.35;;;9.43;56.69
54144;BME280;40050;47.324;18.792;2023-03-20T06:32:34;1004.58;;;9.66;56.27
54144;BME280;40050;47.324;18.792;2023-03-20T06:34:35;1004.55;;;9.70;56.66
54144;BME280;40050;47.324;18.792;2023-03-20T06:36:36;1004.53;;;9.81;56.82
54144;BME280;40050;47.324;18.792;2023-03-20T06:38:37;1004.55;;;9.94;56.65
54144;BME280;40050;47.324;18.792;2023-03-20T06:40:38;1004.57;;;10.03;56.44
54144;BME280;40050;47.324;18.792;2023-03-20T06:42:39;1004.55;;;10.10;56.36
54144;BME280;40050;47.324;18.792;2023-03-20T06:44:40;1004.61;;;10.24;56.10
54144;BME280;40050;47.324;18.792;2023-03-20T06:46:41;1004.61;;;10.30;55.89
54144;BME280;40050;47.324;18.792;2023-03-20T06:48:42;1004.62;;;10.42;55.72
54144;BME280;40050;47.324;18.792;2023-03-20T06:50:44;1004.66;;;10.60;55.48
54144;BME280;40050;47.324;18.792;2023-03-20T06:52:45;1004.57;;;10.73;54.74
54144;BME280;40050;47.324;18.792;2023-03-20T06:54:46;1004.64;;;10.87;54.11
54144;BME280;40050;47.324;18.792;2023-03-20T06:56:47;1004.65;;;11.01;53.84
54144;BME280;40050;47.324;18.792;2023-03-20T06:58:48;1004.64;;;11.15;53.44
54144;BME280;40050;47.324;18.792;2023-03-20T07:00:50;1004.35;;;11.11;53.14
54144;BME280;40050;47.324;18.792;2023-03-20T07:02:51;1004.67;;;11.45;53.02
54144;BME280;40050;47.324;18.792;2023-03-20T07:04:52;1004.73;;;11.63;52.35
54144;BME280;40050;47.324;18.792;2023-03-20T07:06:53;1004.70;;;11.81;52.41
54144;BME280;40050;47.324;18.792;2023-03-20T07:08:54;1004.70;;;11.99;51.90
54144;BME280;40050;47.324;18.792;2023-03-20T07:10:55;1004.67;;;12.13;51.29
54144;BME280;40050;47.324;18.792;2023-03-20T07:12:56;1004.74;;;12.28;51.26
54144;BME280;40050;47.324;18.792;2023-03-20T07:14:57;1004.65;;;12.38;50.72
54144;BME280;40050;47.324;18.792;2023-03-20T07:16:58;1004.76;;;12.62;50.79
54144;BME280;40050;47.324;18.792;2023-03-20T07:18:59;1004.72;;;12.76;50.37
54144;BME280;40050;47.324;18.792;2023-03-20T07:21:00;1004.73;;;12.91;49.61
54144;BME280;40050;47.324;18.792;2023-03-20T07:23:02;1004.70;;;13.01;49.87
54144;BME280;40050;47.324;18.792;2023-03-20T07:25:03;1004.72;;;13.14;49.85
54144;BME280;40050;47.324;18.792;2023-03-20T07:27:04;1004.67;;;13.25;48.98
54144;BME280;40050;47.324;18.792;2023-03-20T07:29:05;1004.70;;;13.36;48.80
54144;BME280;40050;47.324;18.792;2023-03-20T07:31:06;1004.68;;;13.47;48.41
54144;BME280;40050;47.324;18.792;2023-03-20T07:33:07;1004.67;;;13.58;47.61
54144;BME280;40050;47.324;18.792;2023-03-20T07:35:08;1004.71;;;13.71;47.55
54144;BME280;40050;47.324;18.792;2023-03-20T07:37:09;1004.68;;;13.85;47.18
54144;BME280;40050;47.324;18.792;2023-03-20T07:39:10;1004.63;;;13.90;46.75
54144;BME280;40050;47.324;18.792;2023-03-20T07:41:12;1004.72;;;14.01;46.47
54144;BME280;40050;47.324;18.792;2023-03-20T07:43:14;1004.76;;;14.09;46.45
54144;BME280;40050;47.324;18.792;2023-03-20T07:45:15;1004.68;;;14.13;46.73
54144;BME280;40050;47.324;18.792;2023-03-20T07:47:16;1004.70;;;14.23;46.49
54144;BME280;40050;47.324;18.792;2023-03-20T07:49:17;1004.79;;;14.39;46.29
54144;BME280;40050;47.324;18.792;2023-03-20T07:51:18;1004.80;;;14.54;46.53
54144;BME280;40050;47.324;18.792;2023-03-20T07:53:19;1004.83;;;14.66;46.16
54144;BME280;40050;47.324;18.792;2023-03-20T07:55:19;1004.84;;;14.75;45.29
54144;BME280;40050;47.324;18.792;2023-03-20T07:57:20;1004.81;;;14.86;44.88
54144;BME280;40050;47.324;18.792;2023-03-20T07:59:21;1004.82;;;14.95;44.52
54144;BME280;40050;47.324;18.792;2023-03-20T08:01:22;1004.79;;;14.99;44.20
54144;BME280;40050;47.324;18.792;2023-03-20T08:03:23;1004.82;;;15.14;44.02
54144;BME280;40050;47.324;18.792;2023-03-20T08:05:24;1004.83;;;15.19;44.43
54144;BME280;40050;47.324;18.792;2023-03-20T08:07:25;1004.81;;;15.28;44.59
54144;BME280;40050;47.324;18.792;2023-03-20T08:09:26;1004.81;;;15.45;44.58
54144;BME280;40050;47.324;18.792;2023-03-20T08:11:27;1004.86;;;15.60;44.31
54144;BME280;40050;47.324;18.792;2023-03-20T08:13:29;1004.85;;;15.69;43.34
54144;BME280;40050;47.324;18.792;2023-03-20T08:15:30;1004.85;;;15.78;43.13
54144;BME280;40050;47.324;18.792;2023-03-20T08:17:31;1004.58;;;15.77;42.33
54144;BME280;40050;47.324;18.792;2023-03-20T08:25:52;1004.79;;;16.32;41.92
54144;BME280;40050;47.324;18.792;2023-03-20T08:27:53;1004.82;;;16.46;41.72
54144;BME280;40050;47.324;18.792;2023-03-20T08:29:54;1004.79;;;16.63;41.51
54144;BME280;40050;47.324;18.792;2023-03-20T08:31:55;1004.85;;;16.87;40.54
54144;BME280;40050;47.324;18.792;2023-03-20T08:33:56;1004.75;;;16.94;40.82
54144;BME280;40050;47.324;18.792;2023-03-20T08:35:57;1004.78;;;17.10;40.42
54144;BME280;40050;47.324;18.792;2023-03-20T08:37:58;1004.82;;;17.30;40.67
54144;BME280;40050;47.324;18.792;2023-03-20T08:39:59;1004.80;;;17.47;40.39
54144;BME280;40050;47.324;18.792;2023-03-20T08:42:00;1004.82;;;17.61;40.22
54144;BME280;40050;47.324;18.792;2023-03-20T08:44:01;1004.81;;;17.71;38.89
54144;BME280;40050;47.324;18.792;2023-03-20T08:46:02;1004.86;;;17.79;38.88
54144;BME280;40050;47.324;18.792;2023-03-20T08:48:03;1004.81;;;17.91;39.05
54144;BME280;40050;47.324;18.792;2023-03-20T08:50:04;1004.92;;;18.06;38.94
54144;BME280;40050;47.324;18.792;2023-03-20T08:52:05;1004.94;;;18.14;39.02
54144;BME280;40050;47.324;18.792;2023-03-20T08:54:06;1004.90;;;18.18;37.17
54144;BME280;40050;47.324;18.792;2023-03-20T08:56:08;1004.71;;;18.16;38.15
54144;BME280;40050;47.324;18.792;2023-03-20T08:58:09;1004.97;;;18.34;38.21
54144;BME280;40050;47.324;18.792;2023-03-20T09:00:10;1004.98;;;18.39;38.23
54144;BME280;40050;47.324;18.792;2023-03-20T09:02:12;1004.95;;;18.42;38.08
54144;BME280;40050;47.324;18.792;2023-03-20T09:04:13;1004.93;;;18.44;38.74
54144;BME280;40050;47.324;18.792;2023-03-20T09:06:14;1004.93;;;18.50;38.58
54144;BME280;40050;47.324;18.792;2023-03-20T09:08:15;1004.96;;;18.60;38.69
54144;BME280;40050;47.324;18.792;2023-03-20T09:10:16;1004.91;;;18.58;37.97
54144;BME280;40050;47.324;18.792;2023-03-20T09:12:17;1004.90;;;18.62;38.13
54144;BME280;40050;47.324;18.792;2023-03-20T09:14:18;1004.91;;;18.72;38.42
54144;BME280;40050;47.324;18.792;2023-03-20T09:16:19;1004.98;;;18.76;38.30
54144;BME280;40050;47.324;18.792;2023-03-20T09:18:20;1004.72;;;18.70;38.39
54144;BME280;40050;47.324;18.792;2023-03-20T09:20:21;1004.97;;;18.86;37.79
54144;BME280;40050;47.324;18.792;2023-03-20T09:22:23;1005.01;;;18.87;37.34
54144;BME280;40050;47.324;18.792;2023-03-20T09:24:24;1004.98;;;18.82;37.48
54144;BME280;40050;47.324;18.792;2023-03-20T09:26:25;1005.00;;;18.87;37.51
54144;BME280;40050;47.324;18.792;2023-03-20T09:28:26;1005.00;;;18.84;37.05
54144;BME280;40050;47.324;18.792;2023-03-20T09:30:27;1005.03;;;18.87;36.97
54144;BME280;40050;47.324;18.792;2023-03-20T09:32:28;1005.00;;;18.90;37.78
54144;BME280;40050;47.324;18.792;2023-03-20T09:34:29;1004.99;;;19.02;37.19
54144;BME280;40050;47.324;18.792;2023-03-20T09:36:30;1005.04;;;19.12;36.96
54144;BME280;40050;47.324;18.792;2023-03-20T09:38:30;1004.99;;;19.09;37.04
54144;BME280;40050;47.324;18.792;2023-03-20T09:43:06;1004.95;;;19.16;37.07
54144;BME280;40050;47.324;18.792;2023-03-20T09:45:17;1004.95;;;19.19;37.01
54144;BME280;40050;47.324;18.792;2023-03-20T09:49:47;1005.01;;;19.50;36.46
54144;BME280;40050;47.324;18.792;2023-03-20T09:51:55;1005.04;;;19.53;36.11
54144;BME280;40050;47.324;18.792;2023-03-20T09:54:07;1004.98;;;19.56;35.88
54144;BME280;40050;47.324;18.792;2023-03-20T09:56:12;1005.06;;;19.59;35.83
54144;BME280;40050;47.324;18.792;2023-03-20T09:58:19;1005.08;;;19.64;35.74
54144;BME280;40050;47.324;18.792;2023-03-20T10:00:22;1005.05;;;19.62;35.64
54144;BME280;40050;47.324;18.792;2023-03-20T10:02:29;1005.05;;;19.64;35.89
54144;BME280;40050;47.324;18.792;2023-03-20T10:04:34;1005.00;;;19.69;34.98
54144;BME280;40050;47.324;18.792;2023-03-20T10:06:36;1005.06;;;19.75;35.29
54144;BME280;40050;47.324;18.792;2023-03-20T10:08:37;1005.01;;;19.78;35.11
54144;BME280;40050;47.324;18.792;2023-03-20T10:11:00;1005.02;;;19.82;34.64
54144;BME280;40050;47.324;18.792;2023-03-20T10:13:09;1004.97;;;19.84;34.79
54144;BME280;40050;47.324;18.792;2023-03-20T10:17:43;1004.94;;;20.03;34.99
54144;BME280;40050;47.324;18.792;2023-03-20T10:19:51;1004.87;;;20.09;34.70
54144;BME280;40050;47.324;18.792;2023-03-20T10:24:28;1004.88;;;20.29;35.32
54144;BME280;40050;47.324;18.792;2023-03-20T10:26:34;1004.91;;;20.34;34.73
54144;BME280;40050;47.324;18.792;2023-03-20T10:28:38;1004.89;;;20.38;34.65
54144;BME280;40050;47.324;18.792;2023-03-20T10:35:35;1004.84;;;20.62;33.58
54144;BME280;40050;47.324;18.792;2023-03-20T10:42:27;1004.83;;;20.61;33.69
54144;BME280;40050;47.324;18.792;2023-03-20T10:44:33;1004.87;;;20.62;33.29
54144;BME280;40050;47.324;18.792;2023-03-20T10:46:39;1004.78;;;20.57;33.59
54144;BME280;40050;47.324;18.792;2023-03-20T10:48:48;1004.80;;;20.52;33.56
54144;BME280;40050;47.324;18.792;2023-03-20T10:50:56;1004.84;;;20.50;33.96
54144;BME280;40050;47.324;18.792;2023-03-20T10:52:58;1004.79;;;20.59;33.49
54144;BME280;40050;47.324;18.792;2023-03-20T10:55:19;1004.80;;;20.57;33.81
54144;BME280;40050;47.324;18.792;2023-03-20T10:57:23;1004.83;;;20.58;33.22
54144;BME280;40050;47.324;18.792;2023-03-20T10:59:25;1004.75;;;20.50;33.58
54144;BME280;40050;47.324;18.792;2023-03-20T11:01:27;1004.79;;;20.49;33.69
54144;BME280;40050;47.324;18.792;2023-03-20T11:03:28;1004.74;;;20.54;32.98
54144;BME280;40050;47.324;18.792;2023-03-20T11:05:33;1004.71;;;20.57;33.92
54144;BME280;40050;47.324;18.792;2023-03-20T11:07:34;1004.68;;;20.54;33.60
54144;BME280;40050;47.324;18.792;2023-03-20T11:09:37;1004.72;;;20.55;33.66
54144;BME280;40050;47.324;18.792;2023-03-20T11:11:38;1004.66;;;20.57;33.85
54144;BME280;40050;47.324;18.792;2023-03-20T11:13:42;1004.60;;;20.56;33.67
54144;BME280;40050;47.324;18.792;2023-03-20T11:15:43;1004.62;;;20.68;34.22
54144;BME280;40050;47.324;18.792;2023-03-20T11:17:57;1004.63;;;20.77;33.23
54144;BME280;40050;47.324;18.792;2023-03-20T11:20:03;1004.52;;;20.71;32.49
54144;BME280;40050;47.324;18.792;2023-03-20T11:22:46;1004.59;;;20.81;32.90
54144;BME280;40050;47.324;18.792;2023-03-20T11:24:24;1004.41;;;20.67;33.45
54144;BME280;40050;47.324;18.792;2023-03-20T11:26:31;1004.53;;;20.74;33.37
54144;BME280;40050;47.324;18.792;2023-03-20T11:28:37;1004.36;;;20.71;32.89
54144;BME280;40050;47.324;18.792;2023-03-20T11:30:39;1004.42;;;20.74;33.14
54144;BME280;40050;47.324;18.792;2023-03-20T11:32:45;1004.44;;;20.72;33.03
54144;BME280;40050;47.324;18.792;2023-03-20T11:34:47;1004.44;;;20.68;32.87
54144;BME280;40050;47.324;18.792;2023-03-20T11:36:55;1004.45;;;20.69;32.89
54144;BME280;40050;47.324;18.792;2023-03-20T11:39:01;1004.40;;;20.57;32.70
54144;BME280;40050;47.324;18.792;2023-03-20T11:41:10;1004.41;;;20.53;33.00
54144;BME280;40050;47.324;18.792;2023-03-20T11:43:20;1004.43;;;20.45;32.54
54144;BME280;40050;47.324;18.792;2023-03-20T11:45:22;1004.37;;;20.39;32.99
54144;BME280;40050;47.324;18.792;2023-03-20T11:47:24;1004.27;;;20.35;33.20
54144;BME280;40050;47.324;18.792;2023-03-20T11:49:26;1004.40;;;20.42;33.16
54144;BME280;40050;47.324;18.792;2023-03-20T11:51:27;1004.42;;;20.40;33.58
54144;BME280;40050;47.324;18.792;2023-03-20T11:53:31;1004.36;;;20.45;33.38
54144;BME280;40050;47.324;18.792;2023-03-20T11:55:34;1004.07;;;20.24;33.41
54144;BME280;40050;47.324;18.792;2023-03-20T11:57:38;1004.40;;;20.49;33.06
54144;BME280;40050;47.324;18.792;2023-03-20T11:59:40;1004.29;;;20.38;32.63
54144;BME280;40050;47.324;18.792;2023-03-20T12:01:45;1004.29;;;20.39;33.34
54144;BME280;40050;47.324;18.792;2023-03-20T12:03:51;1004.35;;;20.40;33.87
54144;BME280;40050;47.324;18.792;2023-03-20T12:05:52;1004.33;;;20.45;34.51
54144;BME280;40050;47.324;18.792;2023-03-20T12:08:07;1004.33;;;20.52;33.95
54144;BME280;40050;47.324;18.792;2023-03-20T12:10:11;1004.24;;;20.56;33.08
54144;BME280;40050;47.324;18.792;2023-03-20T12:14:43;1004.20;;;20.56;33.25
54144;BME280;40050;47.324;18.792;2023-03-20T12:16:47;1004.20;;;20.63;33.10
54144;BME280;40050;47.324;18.792;2023-03-20T12:18:59;1004.16;;;20.66;32.70
54144;BME280;40050;47.324;18.792;2023-03-20T12:21:29;1004.13;;;20.62;32.79
54144;BME280;40050;47.324;18.792;2023-03-20T12:28:19;1004.13;;;20.61;33.31
54144;BME280;40050;47.324;18.792;2023-03-20T12:30:27;1004.14;;;20.65;33.05
54144;BME280;40050;47.324;18.792;2023-03-20T12:35:01;1003.94;;;20.49;33.15
54144;BME280;40050;47.324;18.792;2023-03-20T12:37:07;1004.03;;;20.53;33.13
54144;BME280;40050;47.324;18.792;2023-03-20T12:39:11;1003.98;;;20.47;32.79
54144;BME280;40050;47.324;18.792;2023-03-20T12:41:31;1004.02;;;20.52;33.13
54144;BME280;40050;47.324;18.792;2023-03-20T12:43:40;1004.02;;;20.48;32.98
54144;BME280;40050;47.324;18.792;2023-03-20T12:45:46;1004.01;;;20.42;33.20
54144;BME280;40050;47.324;18.792;2023-03-20T12:48:05;1003.99;;;20.35;33.03